Terminal Aerodrome Forecast
Issued by NWS

Home | Current Version | Previous Version | Graphics & Text | Print | Product List | Glossary Off
Versions: 1 2 3 4 5 6 7 8 9 10 11 12 13 14 15 16

000
FTUS43 KDDC 180336 AAA
TAFGCK
TAF AMD
KGCK 180336Z 1804/1824 16012KT P6SM BKN200
      TEMPO 1804/1806 VRB30G40KT 1SM TSRA BKN020CB
     FM181100 21008KT P6SM SCT150=

USA.gov is the U.S. government's official web portal to all federal, state and local government web resources and services.